createdAt,value
2023-03-11T00:00:16.141Z,119.41
2023-03-11T00:04:16.211Z,122.11
2023-03-11T00:08:16.243Z,118.14
2023-03-11T00:12:16.322Z,122.90
2023-03-11T00:16:16.479Z,119.53
2023-03-11T00:20:16.470Z,120.82
2023-03-11T00:24:16.563Z,116.12
2023-03-11T00:28:16.651Z,119.05
2023-03-11T00:32:16.755Z,117.77
2023-03-11T00:36:16.894Z,115.16
2023-03-11T00:40:16.849Z,121.01
2023-03-11T00:44:16.914Z,124.31
2023-03-11T00:48:17.031Z,118.04
2023-03-11T00:52:17.104Z,122.40
2023-03-11T00:56:17.149Z,121.83
2023-03-11T01:00:17.212Z,121.99
2023-03-11T01:04:17.327Z,122.08
2023-03-11T01:08:17.390Z,120.74
2023-03-11T01:12:17.447Z,125.67
2023-03-11T01:16:17.569Z,120.19
2023-03-11T01:20:17.623Z,121.42
2023-03-11T01:24:17.662Z,117.78
2023-03-11T01:28:17.779Z,123.24
2023-03-11T01:32:17.913Z,119.71
2023-03-11T01:36:17.963Z,116.91
2023-03-11T01:40:18.060Z,118.15
2023-03-11T01:44:18.185Z,115.49
2023-03-11T01:48:18.229Z,120.52
2023-03-11T01:52:18.339Z,119.71
2023-03-11T01:56:18.407Z,122.97
2023-03-11T02:00:18.559Z,119.60
2023-03-11T02:04:18.635Z,119.59
2023-03-11T02:08:18.686Z,120.76
2023-03-11T02:12:18.812Z,111.94
2023-03-11T02:16:18.916Z,113.12
2023-03-11T02:20:19.000Z,118.46
2023-03-11T02:24:19.075Z,115.87
2023-03-11T02:28:19.178Z,114.09
2023-03-11T02:32:19.331Z,111.24
2023-03-11T02:36:19.365Z,116.68
2023-03-11T02:40:19.461Z,117.81
2023-03-11T02:44:19.526Z,116.88
2023-03-11T02:48:19.643Z,116.28
2023-03-11T02:52:19.734Z,113.47
2023-03-11T02:56:19.800Z,115.33
2023-03-11T03:00:19.926Z,116.40
2023-03-11T03:04:20.098Z,114.19
2023-03-11T03:08:20.140Z,111.00
2023-03-11T03:12:20.210Z,108.80
2023-03-11T03:16:20.380Z,112.74
2023-03-11T03:20:20.425Z,110.07
2023-03-11T03:24:20.566Z,109.31
2023-03-11T03:28:20.632Z,110.52
2023-03-11T03:32:20.809Z,109.30
2023-03-11T03:36:20.857Z,106.47
2023-03-11T03:40:20.995Z,108.13
2023-03-11T03:44:21.105Z,105.17
2023-03-11T03:48:21.196Z,104.91
2023-03-11T03:52:21.318Z,106.12
2023-03-11T03:56:21.447Z,105.36
2023-03-11T04:00:21.524Z,103.79
2023-03-11T04:04:21.664Z,104.37
2023-03-11T04:08:21.781Z,107.35
2023-03-11T04:12:21.914Z,101.50
2023-03-11T04:16:22.093Z,101.74
2023-03-11T04:20:22.131Z,101.11
2023-03-11T04:24:22.312Z,100.88
2023-03-11T04:28:22.790Z,107.33
2023-03-11T04:32:22.577Z,103.04
2023-03-11T04:36:22.624Z,102.41
2023-03-11T04:40:22.778Z,100.35
2023-03-11T04:44:22.907Z,95.84
2023-03-11T04:48:23.075Z,97.37
2023-03-11T04:52:23.142Z,101.19
2023-03-11T04:56:23.339Z,100.72
2023-03-11T05:00:23.408Z,97.61
2023-03-11T05:04:23.638Z,97.62
2023-03-11T05:08:23.680Z,98.35
2023-03-11T05:12:23.802Z,96.83
2023-03-11T05:16:23.933Z,95.98
2023-03-11T05:20:24.046Z,99.36
2023-03-11T05:24:24.137Z,98.57
2023-03-11T05:28:24.313Z,97.82
2023-03-11T05:32:24.575Z,98.11
2023-03-11T05:36:24.582Z,97.87
2023-03-11T05:40:24.704Z,94.83
2023-03-11T05:44:24.806Z,96.53
2023-03-11T05:48:24.974Z,96.02
2023-03-11T05:52:25.074Z,96.50
2023-03-11T05:56:25.224Z,94.66
2023-03-11T06:00:25.361Z,95.53
2023-03-11T06:04:25.689Z,92.43
2023-03-11T06:08:25.596Z,94.61
2023-03-11T06:12:25.743Z,91.15
2023-03-11T06:16:25.934Z,90.18
2023-03-11T06:20:26.005Z,92.31
2023-03-11T06:24:26.127Z,93.26
2023-03-11T06:28:26.277Z,93.12
2023-03-11T06:32:26.472Z,92.96
2023-03-11T06:36:26.629Z,93.23
2023-03-11T06:40:26.743Z,86.49
2023-03-11T06:44:26.825Z,88.94
2023-03-11T06:48:26.968Z,91.21
2023-03-11T06:52:27.104Z,88.27
2023-03-11T06:56:27.227Z,90.59
2023-03-11T07:00:27.350Z,87.55
2023-03-11T07:04:27.576Z,89.91
2023-03-11T07:08:27.615Z,88.65
2023-03-11T07:12:27.755Z,86.64
2023-03-11T07:16:27.909Z,86.18
2023-03-11T07:20:28.009Z,87.96
2023-03-11T07:24:28.188Z,89.14
2023-03-11T07:28:28.310Z,90.20
2023-03-11T07:32:28.434Z,89.25
2023-03-11T07:36:28.617Z,87.75
2023-03-11T07:40:28.747Z,85.92
2023-03-11T07:44:28.888Z,90.12
2023-03-11T07:48:29.016Z,84.21
2023-03-11T07:52:29.188Z,86.42
2023-03-11T07:56:29.314Z,88.40
2023-03-11T08:00:29.498Z,86.35
2023-03-11T08:04:29.580Z,86.65
2023-03-11T08:08:29.865Z,84.45
2023-03-11T08:12:29.890Z,76.15
2023-03-11T08:16:29.984Z,82.12
2023-03-11T08:20:30.120Z,81.25
2023-03-11T08:24:30.398Z,72.77
2023-03-11T08:28:30.408Z,83.00
2023-03-11T08:32:30.562Z,81.08
2023-03-11T08:36:30.685Z,81.11
2023-03-11T08:40:30.851Z,81.78
2023-03-11T08:44:30.978Z,79.51
2023-03-11T08:48:31.109Z,79.55
2023-03-11T08:52:31.233Z,80.75
2023-03-11T08:56:31.377Z,79.71
2023-03-11T09:00:31.438Z,82.68
2023-03-11T09:04:31.581Z,80.66
2023-03-11T09:08:31.659Z,80.91
2023-03-11T09:12:31.839Z,81.68
2023-03-11T09:16:31.949Z,80.65
2023-03-11T09:20:32.021Z,76.52
2023-03-11T09:24:32.127Z,79.81
2023-03-11T09:28:32.193Z,80.10
2023-03-11T09:32:32.341Z,76.18
2023-03-11T09:36:32.413Z,78.91
2023-03-11T09:40:32.549Z,78.37
2023-03-11T09:44:32.624Z,83.35
2023-03-11T09:48:32.915Z,77.29
2023-03-11T09:52:32.790Z,81.30
2023-03-11T09:56:32.862Z,77.53
2023-03-11T10:00:32.880Z,80.43
2023-03-11T10:04:32.999Z,80.03
2023-03-11T10:08:33.086Z,74.64
2023-03-11T10:12:33.179Z,79.95
2023-03-11T10:16:33.313Z,80.48
2023-03-11T10:20:33.383Z,74.54
2023-03-11T10:24:33.410Z,77.88
2023-03-11T10:28:33.483Z,83.73
2023-03-11T10:32:33.629Z,83.07
2023-03-11T10:36:33.650Z,79.67
2023-03-11T10:40:33.681Z,78.66
2023-03-11T10:44:33.722Z,81.09
2023-03-11T10:48:33.771Z,80.54
2023-03-11T10:52:33.866Z,78.57
2023-03-11T10:56:33.821Z,82.49
2023-03-11T11:00:33.917Z,86.76
2023-03-11T11:04:33.962Z,101.82
2023-03-11T11:08:33.970Z,104.66
2023-03-11T11:12:33.948Z,87.38
2023-03-11T11:16:34.061Z,91.79
2023-03-11T11:20:33.953Z,98.23
2023-03-11T11:24:33.912Z,89.89
2023-03-11T11:28:33.891Z,92.81
2023-03-11T11:32:34.078Z,87.99
2023-03-11T11:36:33.870Z,85.69
2023-03-11T11:40:33.872Z,90.41
2023-03-11T11:44:33.823Z,87.49
2023-03-11T11:48:33.819Z,89.37
2023-03-11T11:52:33.796Z,98.19
2023-03-11T11:56:33.807Z,79.88
2023-03-11T12:00:33.747Z,87.08
2023-03-11T12:04:33.754Z,83.16
2023-03-11T12:08:33.832Z,92.14
2023-03-11T12:12:33.973Z,83.77
2023-03-11T12:16:34.110Z,86.51
2023-03-11T12:20:34.471Z,94.81
2023-03-11T12:24:34.538Z,85.57
2023-03-11T12:28:34.476Z,92.92
2023-03-11T12:32:34.490Z,95.46
2023-03-11T12:36:34.435Z,92.15
2023-03-11T12:40:34.434Z,94.76
2023-03-11T12:44:34.333Z,91.83
2023-03-11T12:48:34.308Z,91.61
2023-03-11T12:52:34.265Z,91.92
2023-03-11T12:56:34.206Z,93.32
2023-03-11T13:00:34.201Z,91.91
2023-03-11T13:04:34.170Z,94.01
2023-03-11T13:08:34.176Z,94.39
2023-03-11T13:12:34.125Z,92.95
2023-03-11T13:16:34.129Z,91.32
2023-03-11T13:20:34.079Z,90.83
2023-03-11T13:24:34.013Z,86.81
2023-03-11T13:28:33.972Z,84.37
2023-03-11T13:32:33.901Z,92.30
2023-03-11T13:36:33.887Z,89.76
2023-03-11T13:40:33.848Z,85.01
2023-03-11T13:44:33.908Z,84.06
2023-03-11T13:48:36.058Z,85.68
2023-03-11T13:52:33.842Z,83.37
2023-03-11T13:56:33.799Z,82.58
2023-03-11T14:00:33.827Z,83.65
2023-03-11T14:04:33.749Z,81.64
2023-03-11T14:08:33.685Z,78.11
2023-03-11T14:12:33.653Z,78.63
2023-03-11T14:16:33.821Z,83.28
2023-03-11T14:20:33.690Z,83.28
2023-03-11T14:24:33.622Z,86.88
2023-03-11T14:28:33.622Z,88.06
2023-03-11T14:32:33.628Z,89.16
2023-03-11T14:36:33.503Z,90.12
2023-03-11T14:40:33.464Z,94.43
2023-03-11T14:44:33.498Z,92.63
2023-03-11T14:48:33.434Z,94.76
2023-03-11T14:52:33.345Z,94.67
2023-03-11T14:56:33.349Z,96.53
2023-03-11T15:00:33.453Z,96.15
2023-03-11T15:04:33.412Z,99.43
2023-03-11T15:08:33.422Z,96.50
2023-03-11T15:12:33.383Z,95.84
2023-03-11T15:16:33.367Z,93.43
2023-03-11T15:20:33.348Z,94.11
2023-03-11T15:24:33.262Z,92.64
2023-03-11T15:28:33.197Z,91.29
2023-03-11T15:32:33.250Z,87.78
2023-03-11T15:36:33.146Z,89.24
2023-03-11T15:40:44.959Z,85.79
2023-03-11T15:44:34.033Z,83.44
2023-03-11T15:48:33.025Z,80.02
2023-03-11T15:52:32.997Z,78.55
2023-03-11T15:56:32.956Z,77.24
2023-03-11T16:00:32.972Z,75.87
2023-03-11T16:04:33.107Z,79.80
2023-03-11T16:08:33.007Z,75.84
2023-03-11T16:12:33.023Z,75.02
2023-03-11T16:16:33.002Z,78.68
2023-03-11T16:20:33.033Z,79.86
2023-03-11T16:24:32.952Z,75.07
2023-03-11T16:28:32.926Z,82.50
2023-03-11T16:32:32.921Z,76.64
2023-03-11T16:36:32.891Z,74.04
2023-03-11T16:40:32.898Z,80.86
2023-03-11T16:44:32.847Z,76.17
2023-03-11T16:48:32.864Z,78.05
2023-03-11T16:52:32.950Z,76.66
2023-03-11T16:56:32.816Z,75.72
2023-03-11T17:00:32.823Z,79.77
2023-03-11T17:04:32.865Z,81.87
2023-03-11T17:08:32.808Z,76.96
2023-03-11T17:12:32.852Z,76.10
2023-03-11T17:16:32.920Z,79.61
2023-03-11T17:20:32.892Z,78.99
2023-03-11T17:24:32.912Z,78.64
2023-03-11T17:28:32.949Z,81.34
2023-03-11T17:32:32.914Z,76.95
2023-03-11T17:36:33.057Z,75.07
2023-03-11T17:40:33.073Z,75.00
2023-03-11T17:44:48.381Z,76.01
2023-03-11T17:48:34.048Z,78.35
2023-03-11T17:52:33.014Z,77.38
2023-03-11T17:56:32.975Z,74.48
2023-03-11T18:00:32.913Z,76.44
2023-03-11T18:04:32.926Z,79.88
2023-03-11T18:08:33.104Z,79.11
2023-03-11T18:12:32.942Z,76.41
2023-03-11T18:16:33.007Z,78.85
2023-03-11T18:20:33.109Z,81.09
2023-03-11T18:24:33.134Z,81.28
2023-03-11T18:28:33.253Z,72.18
2023-03-11T18:32:33.400Z,69.14
2023-03-11T18:36:33.405Z,73.17
2023-03-11T18:40:33.473Z,69.83
2023-03-11T18:44:35.270Z,76.10
2023-03-11T18:48:33.616Z,76.02
2023-03-11T18:52:33.459Z,77.61
2023-03-11T18:56:33.437Z,73.28
2023-03-11T19:00:35.644Z,75.28
2023-03-11T19:04:33.472Z,77.16
2023-03-11T19:08:33.677Z,78.24
2023-03-11T19:12:33.699Z,72.54
2023-03-11T19:16:33.765Z,71.09
2023-03-11T19:20:33.735Z,73.74
2023-03-11T19:24:33.859Z,71.59
2023-03-11T19:28:34.016Z,75.46
2023-03-11T19:32:34.098Z,77.03
2023-03-11T19:36:34.191Z,77.36
2023-03-11T19:40:34.288Z,74.51
2023-03-11T19:44:34.414Z,77.34
2023-03-11T19:48:34.569Z,73.56
2023-03-11T19:52:34.703Z,77.81
2023-03-11T19:56:34.789Z,74.62
2023-03-11T20:00:34.933Z,76.91
2023-03-11T20:04:35.169Z,78.00
2023-03-11T20:08:35.187Z,77.77
2023-03-11T20:12:35.394Z,77.85
2023-03-11T20:16:35.573Z,78.69
2023-03-11T20:20:35.619Z,79.25
2023-03-11T20:24:35.705Z,79.22
2023-03-11T20:28:35.844Z,78.35
2023-03-11T20:32:36.018Z,83.93
2023-03-11T20:36:36.229Z,85.53
2023-03-11T20:40:36.224Z,90.08
2023-03-11T20:44:36.431Z,88.27
2023-03-11T20:48:36.662Z,87.20
2023-03-11T20:52:36.766Z,93.17
2023-03-11T20:56:36.880Z,92.89
2023-03-11T21:00:37.030Z,94.99
2023-03-11T21:04:37.168Z,92.77
2023-03-11T21:08:37.331Z,93.05
2023-03-11T21:12:37.611Z,97.59
2023-03-11T21:16:37.802Z,94.38
2023-03-11T21:20:37.908Z,96.08
2023-03-11T21:24:37.922Z,99.82
2023-03-11T21:28:38.103Z,97.43
2023-03-11T21:32:38.488Z,99.07
2023-03-11T21:36:38.600Z,97.15
2023-03-11T21:40:38.665Z,98.76
2023-03-11T21:44:38.760Z,101.03
2023-03-11T21:48:38.924Z,99.87
2023-03-11T21:52:39.113Z,97.94
2023-03-11T21:56:39.290Z,100.18
2023-03-11T22:00:39.402Z,101.02
2023-03-11T22:04:39.591Z,100.73
2023-03-11T22:08:39.814Z,101.32
2023-03-11T22:12:39.988Z,97.09
2023-03-11T22:16:40.228Z,102.26
2023-03-11T22:20:40.398Z,102.24
2023-03-11T22:24:40.410Z,103.12
2023-03-11T22:28:41.207Z,104.84
2023-03-11T22:32:40.807Z,103.47
2023-03-11T22:36:40.951Z,104.07
2023-03-11T22:40:41.108Z,104.07
2023-03-11T22:44:41.285Z,103.60
2023-03-11T22:48:41.451Z,103.59
2023-03-11T22:52:41.637Z,100.88
2023-03-11T22:56:41.809Z,103.59
2023-03-11T23:00:42.012Z,102.54
2023-03-11T23:04:42.235Z,102.79
2023-03-11T23:08:42.361Z,100.80
2023-03-11T23:12:42.556Z,103.40
2023-03-11T23:16:42.753Z,104.53
2023-03-11T23:20:42.923Z,101.24
2023-03-11T23:24:43.044Z,102.87
2023-03-11T23:28:43.277Z,102.97
2023-03-11T23:32:43.483Z,101.00
2023-03-11T23:36:43.621Z,101.32
2023-03-11T23:40:43.813Z,100.48
2023-03-11T23:44:43.988Z,100.10
2023-03-11T23:48:44.095Z,99.44
2023-03-11T23:52:44.269Z,101.48
2023-03-11T23:56:44.472Z,97.69
